Time;durP1;ratioP1;P1;durP2;ratioP2;P2;SDS_P1;SDS_P2;PMS_P1;PMS_P2;Temp;Humidity;BMP_temperature;BMP_pressure;BME280_temperature;BME280_humidity;BME280_pressure;Samples;Min_cycle;Max_cycle;Signal;HPM_P1;HPM_P2
2022/05/07 04:01:34;;;;;;;8.43;6.73;;;9.10;99.90;;;-143.14;100.00;56521.75;5456880;23;20873;-76
2022/05/07 04:04:01;;;;;;;15.33;8.40;;;9.00;99.90;;;-143.14;100.00;56521.75;4949507;29;20461;-75
2022/05/07 04:06:28;;;;;;;9.13;7.40;;;9.00;99.90;;;-143.14;100.00;56521.75;4949746;29;20453;-77
2022/05/07 04:08:55;;;;;;;7.57;5.97;;;9.00;99.90;;;-143.14;100.00;56521.75;4950040;29;20457;-75
2022/05/07 04:11:22;;;;;;;8.03;6.40;;;9.00;99.90;;;-143.14;100.00;56521.75;4949691;28;21042;-75
2022/05/07 04:13:49;;;;;;;7.33;5.87;;;9.00;99.90;;;-143.14;100.00;56521.75;4949530;29;20465;-76
2022/05/07 04:16:16;;;;;;;7.03;5.40;;;9.00;99.90;;;-143.14;100.00;56521.75;4950196;29;20453;-75
2022/05/07 04:18:45;;;;;;;7.03;5.50;;;9.00;99.90;;;-143.14;100.00;56521.75;4949520;29;20489;-75
2022/05/07 04:21:12;;;;;;;7.37;5.00;;;9.00;99.90;;;-143.14;100.00;56521.75;4949388;28;20477;-75
2022/05/07 04:23:39;;;;;;;7.70;5.43;;;9.00;99.90;;;-143.14;100.00;56521.75;4949049;29;20467;-76
2022/05/07 04:26:06;;;;;;;7.50;5.47;;;9.00;99.90;;;-143.14;100.00;56521.75;4951075;29;20548;-74
2022/05/07 04:28:33;;;;;;;8.03;4.93;;;8.90;99.90;;;-143.14;100.00;56521.75;4950896;29;20811;-75
2022/05/07 04:31:00;;;;;;;6.73;5.70;;;8.90;99.90;;;-143.14;100.00;56521.75;4950486;28;21016;-75
2022/05/07 04:33:27;;;;;;;7.00;5.40;;;8.90;99.90;;;-143.14;100.00;56521.75;4950148;29;21109;-75
2022/05/07 04:35:55;;;;;;;7.10;5.90;;;8.90;99.90;;;-143.14;100.00;56521.75;4950914;29;20468;-75
2022/05/07 04:38:22;;;;;;;8.80;6.00;;;8.90;99.90;;;-143.14;100.00;56521.75;4950430;29;21017;-75
2022/05/07 04:40:49;;;;;;;7.03;5.60;;;8.90;99.90;;;-143.14;100.00;56521.75;4950428;28;20488;-75
2022/05/07 04:43:19;;;;;;;7.50;6.20;;;8.90;99.90;;;-143.14;100.00;56521.75;4950023;29;20461;-75
2022/05/07 04:45:47;;;;;;;6.90;6.30;;;8.90;99.90;;;-143.14;100.00;56521.75;4950002;29;20484;-76
2022/05/07 04:48:13;;;;;;;9.50;6.50;;;8.90;99.90;;;-143.14;100.00;56521.75;4949254;28;20516;-76
2022/05/07 04:50:40;;;;;;;6.60;6.00;;;8.90;99.90;;;-143.14;100.00;56521.75;4950662;28;20474;-75
2022/05/07 04:53:09;;;;;;;9.60;6.37;;;8.90;99.90;;;-143.14;100.00;56521.75;4949772;29;20468;-75
2022/05/07 04:55:39;;;;;;;8.70;5.83;;;8.90;99.90;;;-143.14;100.00;56521.75;4950415;28;20470;-75
2022/05/07 04:58:06;;;;;;;7.00;5.70;;;8.90;99.90;;;-143.14;100.00;56521.75;4948898;29;20501;-75
2022/05/07 05:00:33;;;;;;;6.70;5.60;;;8.90;99.90;;;-143.14;100.00;56521.75;4948973;28;20501;-75
2022/05/07 05:03:00;;;;;;;9.60;5.90;;;8.90;99.90;;;-143.14;100.00;56521.75;4947990;29;20910;-75
2022/05/07 05:05:29;;;;;;;6.70;6.00;;;8.90;99.90;;;-143.14;100.00;56521.75;4948556;29;20973;-76
2022/05/07 05:07:56;;;;;;;8.70;5.20;;;8.90;99.90;;;-143.14;100.00;56521.75;4948570;29;20553;-76
2022/05/07 05:10:26;;;;;;;9.70;6.60;;;9.00;99.90;;;-143.14;100.00;56521.75;4948849;28;20909;-75
2022/05/07 05:12:53;;;;;;;10.40;5.70;;;9.00;99.90;;;-143.14;100.00;56521.75;4948185;29;20489;-75
2022/05/07 05:15:20;;;;;;;5.77;5.20;;;9.00;99.90;;;-143.14;100.00;56521.75;4948546;28;20467;-75
2022/05/07 05:17:47;;;;;;;7.07;6.37;;;9.00;99.90;;;-143.14;100.00;56521.75;4948207;29;20505;-76
2022/05/07 05:20:15;;;;;;;7.23;5.73;;;9.00;99.90;;;-143.14;100.00;56521.75;4948466;28;20457;-75
2022/05/07 05:22:48;;;;;;;7.47;6.30;;;9.10;99.90;;;-143.14;100.00;56521.75;4948131;29;20479;-76
2022/05/07 05:25:16;;;;;;;9.97;5.50;;;9.10;99.90;;;-143.14;100.00;56521.75;4948469;29;20465;-75
2022/05/07 05:27:44;;;;;;;6.83;6.13;;;9.10;99.90;;;-143.14;100.00;56521.75;4948035;28;20480;-76
2022/05/07 05:30:13;;;;;;;7.40;6.70;;;9.20;99.90;;;-143.14;100.00;56521.75;4948443;28;20462;-75
2022/05/07 05:32:40;;;;;;;8.97;6.00;;;9.20;99.90;;;-143.14;100.00;56521.75;4948049;29;20507;-76
2022/05/07 05:35:09;;;;;;;9.97;6.90;;;9.20;99.90;;;-143.14;100.00;56521.75;4948223;28;20571;-76
2022/05/07 05:37:36;;;;;;;9.60;5.90;;;9.20;99.90;;;-143.14;100.00;56521.75;4948439;28;20461;-67
2022/05/07 05:40:03;;;;;;;6.83;6.17;;;9.30;99.90;;;-143.14;100.00;56521.75;4948364;29;21340;-64
2022/05/07 05:42:30;;;;;;;8.60;6.40;;;9.20;99.90;;;-143.14;100.00;56521.75;4947491;28;20564;-67
2022/05/07 05:44:58;;;;;;;10.90;6.60;;;9.30;99.90;;;-143.14;100.00;56521.75;4948490;29;21040;-64
2022/05/07 05:47:28;;;;;;;7.40;6.20;;;9.30;99.90;;;-143.14;100.00;56521.75;4948482;29;20457;-65
2022/05/07 05:49:57;;;;;;;8.30;6.63;;;9.30;99.90;;;-143.14;100.00;56521.75;4948786;29;20459;-65
2022/05/07 05:52:23;;;;;;;8.23;6.80;;;9.40;99.90;;;-143.14;100.00;56521.75;4947456;28;20798;-65
2022/05/07 05:54:50;;;;;;;12.20;7.07;;;9.40;99.90;;;-143.14;100.00;56521.75;4947892;29;20461;-75
2022/05/07 05:57:17;;;;;;;7.87;6.17;;;9.50;99.90;;;-143.14;100.00;56521.75;4948268;29;20453;-76
2022/05/07 05:59:45;;;;;;;8.00;6.10;;;9.50;99.90;;;-143.14;100.00;56521.75;4947753;28;20517;-78
2022/05/07 06:02:15;;;;;;;6.90;6.23;;;9.60;99.90;;;-143.14;100.00;56521.75;4946980;28;20862;-75
2022/05/07 06:04:42;;;;;;;9.93;6.20;;;9.60;99.90;;;-143.14;100.00;56521.75;4947905;29;20512;-76
2022/05/07 06:07:12;;;;;;;8.60;6.77;;;9.60;99.90;;;-143.14;100.00;56521.75;4947753;29;20461;-77
2022/05/07 06:09:38;;;;;;;7.83;6.50;;;9.70;99.90;;;-143.14;100.00;56521.75;4948109;29;20461;-76
2022/05/07 06:12:07;;;;;;;7.50;6.30;;;9.70;99.90;;;-143.14;100.00;56521.75;4947386;28;20478;-76
2022/05/07 06:14:34;;;;;;;8.70;6.57;;;9.80;99.90;;;-143.14;100.00;56521.75;4948225;28;20465;-76
2022/05/07 06:17:01;;;;;;;8.37;7.37;;;9.80;99.90;;;-143.14;100.00;56521.75;4947880;29;20450;-76
2022/05/07 06:19:30;;;;;;;8.50;7.10;;;9.80;99.90;;;-143.14;100.00;56521.75;4947680;28;20919;-76
2022/05/07 06:21:57;;;;;;;11.50;7.10;;;9.90;99.90;;;-143.14;100.00;56521.75;4946935;28;20489;-76
2022/05/07 06:29:54;;;;;;;8.77;6.80;;;9.90;99.90;;;-143.14;100.00;56521.75;4947594;29;20762;-75
2022/05/07 06:32:21;;;;;;;9.97;7.43;;;10.00;99.90;;;-143.14;100.00;56521.75;4946333;28;20481;-76
2022/05/07 06:34:49;;;;;;;9.57;7.60;;;10.00;99.90;;;-143.14;100.00;56521.75;4947188;29;20980;-76
2022/05/07 06:37:16;;;;;;;17.83;8.90;;;10.10;99.90;;;-143.14;100.00;56521.75;4947375;29;20552;-76
2022/05/07 06:39:43;;;;;;;9.50;8.50;;;10.10;99.90;;;-143.14;100.00;56521.75;4947242;29;20928;-75
2022/05/07 06:42:11;;;;;;;9.87;7.33;;;10.20;99.90;;;-143.14;100.00;56521.75;4946816;28;20481;-76
2022/05/07 06:44:38;;;;;;;12.50;8.30;;;10.30;99.90;;;-143.14;100.00;56521.75;4947599;28;20461;-75
2022/05/07 06:47:05;;;;;;;10.43;8.10;;;10.30;99.90;;;-143.14;100.00;56521.75;4946995;29;20540;-76
2022/05/07 06:49:32;;;;;;;11.10;7.70;;;10.40;99.90;;;-143.14;100.00;56521.75;4947385;29;20468;-74
2022/05/07 06:52:01;;;;;;;10.10;7.43;;;10.50;99.90;;;-143.14;100.00;56521.75;4946941;28;20478;-75
2022/05/07 06:54:28;;;;;;;17.60;8.50;;;10.60;99.90;;;-143.14;100.00;56521.75;4947293;29;21065;-75
2022/05/07 06:56:55;;;;;;;13.70;8.80;;;10.60;99.90;;;-143.14;100.00;56521.75;4947392;28;20471;-75
2022/05/07 06:59:22;;;;;;;15.43;8.80;;;10.70;99.90;;;-143.14;100.00;56521.75;4939762;29;20794;-76
2022/05/07 07:01:49;;;;;;;11.90;8.43;;;10.70;99.90;;;-143.14;100.00;56521.75;4927823;29;20494;-74
2022/05/07 07:04:16;;;;;;;11.70;7.97;;;10.80;99.90;;;-143.14;100.00;56521.75;4927640;29;20458;-74
2022/05/07 07:06:43;;;;;;;11.80;7.63;;;10.80;99.90;;;-143.14;100.00;56521.75;4928002;29;20549;-75
2022/05/07 07:09:12;;;;;;;10.80;8.00;;;10.90;99.90;;;-143.14;100.00;56521.75;4928113;29;20816;-73
2022/05/07 07:11:39;;;;;;;8.93;7.27;;;11.00;99.90;;;-143.14;100.00;56521.75;4930734;29;20505;-74
2022/05/07 07:14:06;;;;;;;11.50;8.47;;;11.20;99.90;;;-143.14;100.00;56521.75;4931183;29;20489;-75
2022/05/07 07:16:33;;;;;;;9.27;7.63;;;11.30;99.90;;;-143.14;100.00;56521.75;4940237;28;20494;-74
2022/05/07 07:19:00;;;;;;;10.70;7.50;;;11.40;99.90;;;-143.14;100.00;56521.75;4961291;28;20524;-75
2022/05/07 07:21:27;;;;;;;9.43;7.60;;;11.50;99.90;;;-143.14;100.00;56521.75;4959299;28;20469;-74
2022/05/07 07:23:54;;;;;;;13.07;7.80;;;11.70;99.90;;;-143.14;100.00;56521.75;4966013;28;20831;-75
2022/05/07 07:26:22;;;;;;;9.60;7.60;;;11.80;99.90;;;-143.14;100.00;56521.75;4961926;28;20456;-75
2022/05/07 07:28:49;;;;;;;8.37;7.47;;;11.90;99.90;;;-143.14;100.00;56521.75;4963771;28;20452;-74
2022/05/07 07:31:17;;;;;;;11.30;7.20;;;12.00;99.90;;;-143.14;100.00;56521.75;4966572;28;20481;-75
2022/05/07 07:33:44;;;;;;;10.30;7.80;;;12.20;99.90;;;-143.14;100.00;56521.75;4950398;28;20516;-75
2022/05/07 07:36:12;;;;;;;16.10;7.87;;;12.20;99.90;;;-143.14;100.00;56521.75;4957054;28;21293;-74
2022/05/07 07:38:40;;;;;;;12.13;8.10;;;12.30;99.90;;;-143.14;100.00;56521.75;4958630;28;20496;-76
2022/05/07 07:41:07;;;;;;;12.77;7.60;;;12.50;99.90;;;-143.14;100.00;56521.75;4957200;28;20530;-75
2022/05/07 07:43:38;;;;;;;10.47;6.70;;;12.60;99.90;;;-143.14;100.00;56521.75;4965091;28;21222;-75
2022/05/07 07:48:50;;;;;;;10.77;6.63;;;12.80;99.90;;;-143.14;100.00;56521.75;4957410;28;20432;-76
2022/05/07 07:51:18;;;;;;;8.93;7.10;;;13.00;99.90;;;-143.14;100.00;56521.75;4957167;28;20563;-75
2022/05/07 07:53:45;;;;;;;11.17;7.10;;;13.10;99.90;;;-143.14;100.00;56521.75;4957605;28;20905;-76
2022/05/07 07:56:13;;;;;;;9.30;6.60;;;13.40;99.90;;;-143.14;100.00;56521.75;4959079;28;20478;-76
2022/05/07 07:58:41;;;;;;;7.37;6.50;;;13.60;99.90;;;-143.14;100.00;56521.75;4958946;28;20492;-76
2022/05/07 08:01:08;;;;;;;7.93;6.80;;;13.70;99.90;;;-143.14;100.00;56521.75;4956589;28;20956;-75
2022/05/07 08:03:36;;;;;;;9.77;6.60;;;13.90;99.90;;;-143.14;100.00;56521.75;4957529;28;20452;-75
2022/05/07 08:06:03;;;;;;;7.40;6.23;;;14.30;99.90;;;-143.14;100.00;56521.75;4958184;28;20463;-76
2022/05/07 08:14:00;;;;;;;8.60;6.07;;;15.00;99.90;;;-143.14;100.00;56521.75;4957224;28;20433;-74
2022/05/07 08:16:27;;;;;;;7.35;5.93;;;15.40;99.90;;;-143.14;100.00;56521.75;4956775;28;20561;-75
2022/05/07 08:18:56;;;;;;;10.10;5.80;;;16.50;99.90;;;-143.14;100.00;56521.75;4958817;28;20238;-76
2022/05/07 08:21:23;;;;;;;8.83;6.43;;;16.80;99.90;;;-143.14;100.00;56521.75;4957923;28;21092;-74
2022/05/07 08:23:51;;;;;;;8.27;5.90;;;16.80;99.90;;;-143.14;100.00;56521.75;4957669;28;20512;-64
2022/05/07 08:26:18;;;;;;;8.20;5.73;;;16.90;99.90;;;-143.14;100.00;56521.75;4956548;28;20449;-69
2022/05/07 08:28:45;;;;;;;12.47;6.90;;;16.90;99.90;;;-143.14;100.00;56521.75;4957627;28;20449;-66
2022/05/07 08:31:14;;;;;;;8.30;5.50;;;16.90;99.90;;;-143.14;100.00;56521.75;4957553;28;20474;-66
2022/05/07 08:33:42;;;;;;;8.27;5.80;;;17.00;99.90;;;-143.14;100.00;56521.75;4953258;28;21143;-65
2022/05/07 08:36:10;;;;;;;11.50;6.30;;;17.10;99.90;;;-143.14;100.00;56521.75;4951647;28;20540;-69
2022/05/07 08:38:38;;;;;;;6.33;5.73;;;17.20;99.90;;;-143.14;100.00;56521.75;4952192;28;21266;-69
2022/05/07 08:41:05;;;;;;;8.57;5.63;;;17.30;99.90;;;-143.14;100.00;56521.75;4957810;28;21010;-76
2022/05/07 08:43:36;;;;;;;6.97;6.27;;;17.40;99.90;;;-143.14;100.00;56521.75;4950972;28;21233;-76
2022/05/07 08:46:10;;;;;;;6.80;5.97;;;17.60;99.90;;;-143.14;100.00;56521.75;4964998;28;20452;-76
2022/05/07 08:48:41;;;;;;;8.07;6.00;;;17.60;99.90;;;-143.14;100.00;56521.75;4957772;28;20464;-76
2022/05/07 08:51:08;;;;;;;6.03;4.63;;;17.60;99.90;;;-143.14;100.00;56521.75;4949264;28;20478;-76
2022/05/07 08:53:36;;;;;;;6.17;4.90;;;17.70;99.90;;;-143.14;100.00;56521.75;4948017;28;20568;-75
2022/05/07 08:56:04;;;;;;;6.57;4.40;;;17.80;99.90;;;-143.14;100.00;56521.75;4949438;29;20544;-76
2022/05/07 08:58:31;;;;;;;5.77;4.70;;;18.00;99.90;;;-143.14;100.00;56521.75;4949390;29;20454;-76
2022/05/07 09:00:59;;;;;;;6.60;4.33;;;18.00;99.90;;;-143.14;100.00;56521.75;4948868;28;20486;-76
2022/05/07 09:03:37;;;;;;;6.30;4.10;;;18.10;99.90;;;-143.14;100.00;56521.75;4948391;29;20483;-76
2022/05/07 09:06:16;;;;;;;6.60;4.07;;;18.10;99.90;;;-143.14;100.00;56521.75;4949147;28;20552;-76
2022/05/07 09:08:46;;;;;;;4.27;3.87;;;18.20;99.90;;;-143.14;100.00;56521.75;4948710;29;21029;-76
2022/05/07 09:11:14;;;;;;;5.57;3.93;;;18.20;99.90;;;-143.14;100.00;56521.75;4949179;28;20481;-76
2022/05/07 09:13:41;;;;;;;6.03;4.07;;;18.20;99.90;;;-143.14;100.00;56521.75;4948471;28;20548;-76
2022/05/07 09:16:09;;;;;;;6.47;3.10;;;18.30;99.90;;;-143.14;100.00;56521.75;4954662;28;20449;-68
2022/05/07 09:18:36;;;;;;;7.13;3.00;;;18.30;99.90;;;-143.14;100.00;56521.75;4957927;28;21282;-68
2022/05/07 09:21:20;;;;;;;4.50;3.10;;;18.30;99.90;;;-143.14;100.00;56521.75;4951473;28;20546;-69
2022/05/07 09:23:50;;;;;;;6.83;2.90;;;18.50;99.90;;;-143.14;100.00;56521.75;4954876;28;20455;-70
2022/05/07 09:26:28;;;;;;;5.07;3.20;;;18.60;99.90;;;-143.14;100.00;56521.75;4953108;28;21356;-71
2022/05/07 09:28:56;;;;;;;4.50;2.67;;;18.80;99.90;;;-143.14;100.00;56521.75;4957674;28;20454;-71
2022/05/07 09:31:28;;;;;;;5.50;2.43;;;19.00;99.90;;;-143.14;100.00;56521.75;4956320;28;20981;-71
2022/05/07 09:33:56;;;;;;;4.10;2.37;;;18.90;99.90;;;-143.14;100.00;56521.75;4956968;28;20450;-71
2022/05/07 09:36:24;;;;;;;8.63;2.90;;;19.00;99.90;;;-143.14;100.00;56521.75;4959971;28;20543;-71
2022/05/07 09:39:01;;;;;;;3.73;2.67;;;19.00;99.90;;;-143.14;100.00;56521.75;4953351;28;20454;-71
2022/05/07 09:41:28;;;;;;;6.37;4.87;;;19.00;99.90;;;-143.14;100.00;56521.75;4957511;28;20559;-72
2022/05/07 09:43:56;;;;;;;14.93;5.10;;;19.10;99.90;;;-143.14;100.00;56521.75;4958215;28;20448;-71
2022/05/07 09:46:23;;;;;;;7.53;4.70;;;19.10;99.90;;;-143.14;100.00;56521.75;4957573;28;20535;-71
2022/05/07 09:48:52;;;;;;;7.47;5.47;;;19.10;99.90;;;-143.14;100.00;56521.75;4958416;28;20450;-70
2022/05/07 09:51:21;;;;;;;6.40;4.70;;;19.20;99.90;;;-143.14;100.00;56521.75;4966273;28;20488;-70
2022/05/07 09:59:20;;;;;;;5.37;3.97;;;18.90;99.90;;;-143.14;100.00;56521.75;4953582;28;20562;-70
2022/05/07 10:02:12;;;;;;;4.60;3.77;;;18.80;99.90;;;-143.14;100.00;56521.75;4948245;28;20511;-70
2022/05/07 10:05:25;;;;;;;4.73;3.50;;;18.80;99.90;;;-143.14;100.00;56521.75;4928692;29;20549;-70
2022/05/07 10:08:20;;;;;;;3.70;3.07;;;18.90;99.90;;;-143.14;100.00;56521.75;4946700;28;20948;-70
2022/05/07 10:10:53;;;;;;;5.80;3.07;;;18.90;99.90;;;-143.14;100.00;56521.75;4929172;28;20490;-71
2022/05/07 10:13:20;;;;;;;4.00;2.30;;;18.90;99.90;;;-143.14;100.00;56521.75;4957216;28;20966;-70
2022/05/07 10:15:59;;;;;;;3.30;2.40;;;19.00;99.90;;;-143.14;100.00;56521.75;4956434;28;20545;-72
2022/05/07 10:18:35;;;;;;;5.83;2.57;;;19.00;99.90;;;-143.14;100.00;56521.75;4958054;28;20459;-71
2022/05/07 10:21:13;;;;;;;9.87;2.90;;;19.10;99.90;;;-143.14;100.00;56521.75;4959679;28;20495;-72
2022/05/07 10:23:54;;;;;;;3.03;2.10;;;19.10;99.90;;;-143.14;100.00;56521.75;4960961;28;20457;-70
2022/05/07 10:26:39;;;;;;;2.50;2.30;;;19.20;99.90;;;-143.14;100.00;56521.75;4953315;28;20453;-70
2022/05/07 10:29:06;;;;;;;3.97;2.60;;;19.30;99.90;;;-143.14;100.00;56521.75;4951267;28;20444;-68
2022/05/07 10:31:45;;;;;;;2.50;2.30;;;19.40;99.90;;;-143.14;100.00;56521.75;4966386;28;20831;-69
2022/05/07 10:34:23;;;;;;;6.93;2.60;;;19.40;99.90;;;-143.14;100.00;56521.75;4941792;28;20536;-68
2022/05/07 10:37:04;;;;;;;4.00;2.53;;;19.50;99.90;;;-143.14;100.00;56521.75;4962142;28;20823;-69
2022/05/07 10:39:31;;;;;;;3.37;2.10;;;19.50;99.90;;;-143.14;100.00;56521.75;4959113;28;20500;-69
2022/05/07 10:42:01;;;;;;;2.70;2.10;;;19.50;99.90;;;-143.14;100.00;56521.75;4960002;28;20469;-69
2022/05/07 10:44:34;;;;;;;4.13;2.60;;;19.50;99.90;;;-143.14;100.00;56521.75;4949245;28;20453;-69
2022/05/07 10:47:11;;;;;;;5.90;2.50;;;19.50;99.90;;;-143.14;100.00;56521.75;4957350;28;20459;-69
2022/05/07 10:49:55;;;;;;;2.60;2.20;;;19.50;99.90;;;-143.14;100.00;56521.75;4954340;28;20528;-68
2022/05/07 10:52:31;;;;;;;6.00;3.10;;;19.60;99.90;;;-143.14;100.00;56521.75;4927221;29;20561;-67
2022/05/07 10:55:10;;;;;;;3.20;2.60;;;19.60;99.90;;;-143.14;100.00;56521.75;4950867;28;20464;-70
2022/05/07 10:57:45;;;;;;;6.03;2.40;;;19.70;99.90;;;-143.14;100.00;56521.75;4967072;28;20471;-69
2022/05/07 11:00:18;;;;;;;3.47;2.60;;;19.70;99.90;;;-143.14;100.00;56521.75;4961770;28;20502;-68
2022/05/07 11:02:48;;;;;;;9.40;2.77;;;19.80;99.90;;;-143.14;100.00;56521.75;4948337;28;20461;-69
2022/05/07 11:05:16;;;;;;;2.67;2.00;;;20.00;99.90;;;-143.14;100.00;56521.75;4949535;28;20897;-70
2022/05/07 11:07:44;;;;;;;4.33;2.37;;;20.10;99.90;;;-143.14;100.00;56521.75;4961719;28;20576;-70
2022/05/07 11:10:12;;;;;;;6.87;2.50;;;20.30;99.90;;;-143.14;100.00;56521.75;4962195;28;20913;-70
2022/05/07 11:12:40;;;;;;;2.60;1.80;;;20.50;99.90;;;-143.14;100.00;56521.75;4947511;28;20457;-69
2022/05/07 11:15:09;;;;;;;3.70;2.30;;;20.50;99.90;;;-143.14;100.00;56521.75;4946839;28;20454;-68
2022/05/07 11:17:40;;;;;;;2.73;1.90;;;20.60;99.90;;;-143.14;100.00;56521.75;4963846;28;20528;-69
2022/05/07 11:20:08;;;;;;;3.80;2.20;;;20.60;99.90;;;-143.14;100.00;56521.75;4958900;28;20884;-68
2022/05/07 11:22:39;;;;;;;3.07;2.20;;;20.70;99.90;;;-143.14;100.00;56521.75;4957436;28;20557;-68
2022/05/07 11:25:08;;;;;;;3.57;2.17;;;20.70;99.90;;;-143.14;100.00;56521.75;4947140;28;20454;-69
2022/05/07 11:27:35;;;;;;;2.50;2.30;;;20.70;99.90;;;-143.14;100.00;56521.75;4962949;28;20489;-68
2022/05/07 11:30:10;;;;;;;6.50;2.30;;;20.60;99.90;;;-143.14;100.00;56521.75;4950729;28;20536;-68
2022/05/07 11:32:40;;;;;;;3.30;2.00;;;20.60;99.90;;;-143.14;100.00;56521.75;4964242;28;20487;-68
2022/05/07 11:35:09;;;;;;;4.90;2.00;;;20.60;99.90;;;-143.14;100.00;56521.75;4954621;28;20486;-68
2022/05/07 11:37:41;;;;;;;4.10;2.07;;;20.70;99.90;;;-143.14;100.00;56521.75;4954829;28;20451;-70
2022/05/07 11:40:10;;;;;;;2.47;2.10;;;20.80;99.90;;;-143.14;100.00;56521.75;4958236;28;20509;-76
2022/05/07 11:42:43;;;;;;;3.10;1.97;;;20.90;99.90;;;-143.14;100.00;56521.75;4960023;28;20499;-76
2022/05/07 11:45:27;;;;;;;3.63;2.30;;;20.90;99.90;;;-143.14;100.00;56521.75;4952591;28;20449;-74
2022/05/07 11:47:58;;;;;;;9.20;5.50;;;21.20;99.90;;;-143.14;100.00;56521.75;4953019;28;20457;-72
2022/05/07 11:50:27;;;;;;;1.90;1.80;;;21.20;99.90;;;-143.14;100.00;56521.75;4947601;28;20448;-75
2022/05/07 11:52:55;;;;;;;4.80;2.30;;;21.40;99.90;;;-143.14;100.00;56521.75;4950263;28;20464;-75
2022/05/07 11:55:28;;;;;;;2.67;2.00;;;21.40;99.90;;;-143.14;100.00;56521.75;4949733;28;20460;-76
2022/05/07 11:57:57;;;;;;;7.30;2.87;;;21.50;99.90;;;-143.14;100.00;56521.75;4947764;28;20501;-75
2022/05/07 12:00:26;;;;;;;5.70;2.10;;;21.70;99.90;;;-143.14;100.00;56521.75;4958437;28;20575;-76
2022/05/07 12:02:58;;;;;;;4.43;2.20;;;21.70;99.90;;;-143.14;100.00;56521.75;4948595;28;20462;-75
2022/05/07 12:05:27;;;;;;;4.47;2.93;;;21.70;99.90;;;-143.14;100.00;56521.75;4967052;28;20494;-75
2022/05/07 12:07:55;;;;;;;7.67;3.67;;;21.80;99.90;;;-143.14;100.00;56521.75;4960012;28;20474;-75
2022/05/07 12:10:23;;;;;;;5.10;2.90;;;21.90;99.90;;;-143.14;100.00;56521.75;4954774;28;20441;-76
2022/05/07 12:12:51;;;;;;;7.97;5.40;;;22.00;99.90;;;-143.14;100.00;56521.75;4962607;28;20510;-76
2022/05/07 12:17:51;;;;;;;5.37;2.07;;;22.00;99.90;;;-143.14;100.00;56521.75;4952796;28;20484;-76
2022/05/07 12:18:07;;;;;;;7.10;5.30;;;22.00;99.90;;;-143.14;100.00;56521.75;4953115;28;20449;-67
2022/05/07 12:20:34;;;;;;;2.73;2.17;;;22.00;99.90;;;-143.14;100.00;56521.75;4960226;28;20492;-70
2022/05/07 12:31:15;;;;;;;3.43;2.23;;;22.20;99.90;;;-143.14;100.00;56521.75;4963599;28;20464;-70
2022/05/07 12:33:43;;;;;;;3.00;2.20;;;22.20;99.90;;;-143.14;100.00;56521.75;4960074;28;20457;-69
2022/05/07 12:36:11;;;;;;;4.03;2.97;;;22.30;99.90;;;-143.14;100.00;56521.75;4955420;28;20453;-70
2022/05/07 12:38:38;;;;;;;5.37;2.37;;;22.30;99.90;;;-143.14;100.00;56521.75;4953328;28;20462;-70
2022/05/07 12:41:05;;;;;;;5.87;2.90;;;22.50;99.90;;;-143.14;100.00;56521.75;4961319;28;20496;-70
2022/05/07 12:43:33;;;;;;;9.63;2.73;;;22.50;99.90;;;-143.14;100.00;56521.75;4961094;28;20475;-69
2022/05/07 12:46:00;;;;;;;5.47;2.90;;;22.30;99.90;;;-143.14;100.00;56521.75;4968604;28;20488;-69
2022/05/07 12:48:27;;;;;;;3.67;2.43;;;22.20;99.90;;;-143.14;100.00;56521.75;4953530;28;20454;-69
2022/05/07 12:50:55;;;;;;;3.80;2.90;;;22.20;99.90;;;-143.14;100.00;56521.75;4960423;28;20479;-69
2022/05/07 12:53:23;;;;;;;6.93;2.70;;;22.30;99.90;;;-143.14;100.00;56521.75;4957925;28;20462;-69
2022/05/07 12:55:50;;;;;;;4.13;2.77;;;22.40;99.90;;;-143.14;100.00;56521.75;4968915;28;20487;-69
2022/05/07 12:58:17;;;;;;;3.37;2.80;;;22.50;99.90;;;-143.14;100.00;56521.75;4949849;28;20461;-69
2022/05/07 13:00:44;;;;;;;5.23;2.63;;;22.50;99.90;;;-143.14;100.00;56521.75;4955672;28;20496;-69
2022/05/07 13:03:12;;;;;;;4.50;2.60;;;22.40;99.90;;;-143.14;100.00;56521.75;4964257;28;20567;-69
2022/05/07 13:05:39;;;;;;;3.30;3.00;;;22.50;99.90;;;-143.14;100.00;56521.75;4959748;28;20444;-69
2022/05/07 13:08:08;;;;;;;4.10;3.20;;;22.50;99.90;;;-143.14;100.00;56521.75;4960627;28;20456;-70
2022/05/07 13:10:36;;;;;;;3.50;3.00;;;22.60;99.90;;;-143.14;100.00;56521.75;4960566;28;21216;-69
2022/05/07 13:13:04;;;;;;;3.93;3.53;;;22.60;99.90;;;-143.14;100.00;56521.75;4963355;28;20913;-71
2022/05/07 13:15:31;;;;;;;4.30;3.07;;;22.60;99.90;;;-143.14;100.00;56521.75;4953284;28;20999;-69
2022/05/07 13:18:00;;;;;;;4.37;3.07;;;22.60;99.90;;;-143.14;100.00;56521.75;4952048;28;20457;-69
2022/05/07 13:20:28;;;;;;;4.73;3.23;;;22.40;99.90;;;-143.14;100.00;56521.75;4957954;28;20525;-69
2022/05/07 13:22:57;;;;;;;5.77;3.30;;;22.40;99.90;;;-143.14;100.00;56521.75;4965209;28;21236;-69
2022/05/07 13:25:25;;;;;;;5.37;3.20;;;22.30;99.90;;;-143.14;100.00;56521.75;4950291;28;20450;-69
2022/05/07 13:27:53;;;;;;;6.70;3.70;;;22.40;99.90;;;-143.14;100.00;56521.75;4939304;28;20454;-69
2022/05/07 13:30:21;;;;;;;5.73;3.23;;;22.40;99.90;;;-143.14;100.00;56521.75;4945656;28;20454;-69
2022/05/07 13:32:49;;;;;;;6.50;3.30;;;22.40;99.90;;;-143.14;100.00;56521.75;4950642;28;20449;-70
2022/05/07 13:35:16;;;;;;;6.60;3.03;;;22.50;99.90;;;-143.14;100.00;56521.75;4960253;28;21054;-71
2022/05/07 13:37:44;;;;;;;3.97;3.20;;;22.50;99.90;;;-143.14;100.00;56521.75;4957590;28;21128;-69
2022/05/07 13:40:12;;;;;;;5.00;3.00;;;22.50;99.90;;;-143.14;100.00;56521.75;4956672;28;20513;-69
2022/05/07 13:42:41;;;;;;;5.30;3.30;;;22.50;99.90;;;-143.14;100.00;56521.75;4955447;28;20487;-70
2022/05/07 13:45:10;;;;;;;6.43;2.90;;;22.50;99.90;;;-143.14;100.00;56521.75;4951855;28;20886;-70
2022/05/07 13:47:37;;;;;;;8.10;3.73;;;22.40;99.90;;;-143.14;100.00;56521.75;4950159;28;20445;-70
2022/05/07 13:50:06;;;;;;;4.80;3.90;;;22.40;99.90;;;-143.14;100.00;56521.75;4954973;28;20504;-69
2022/05/07 13:52:36;;;;;;;6.33;4.10;;;22.40;99.90;;;-143.14;100.00;56521.75;4957457;28;20518;-70
2022/05/07 13:55:03;;;;;;;4.70;3.70;;;22.50;99.90;;;-143.14;100.00;56521.75;4956646;28;20450;-70
2022/05/07 13:57:31;;;;;;;5.37;3.50;;;22.50;99.90;;;-143.14;100.00;56521.75;4957051;28;20545;-70
2022/05/07 14:00:00;;;;;;;31.40;5.37;;;22.60;99.90;;;-143.14;100.00;56521.75;4956978;28;20564;-70
2022/05/07 14:02:28;;;;;;;3.93;3.37;;;22.70;99.90;;;-143.14;100.00;56521.75;4955678;28;21040;-69
2022/05/07 14:04:55;;;;;;;5.90;3.87;;;22.80;99.90;;;-143.14;100.00;56521.75;4956711;28;20450;-70
2022/05/07 14:07:22;;;;;;;8.87;3.80;;;22.90;99.90;;;-143.14;100.00;56521.75;4955876;28;20863;-70
2022/05/07 14:09:49;;;;;;;5.40;3.70;;;22.90;99.90;;;-143.14;100.00;56521.75;4954148;28;20456;-70
2022/05/07 14:12:18;;;;;;;5.53;3.47;;;23.00;99.90;;;-143.14;100.00;56521.75;4955470;28;21522;-70
2022/05/07 14:14:47;;;;;;;3.80;3.30;;;23.10;99.90;;;-143.14;100.00;56521.75;4954986;28;20459;-70
2022/05/07 14:17:16;;;;;;;5.67;3.70;;;23.10;99.90;;;-143.14;100.00;56521.75;4956716;28;20453;-70
2022/05/07 14:19:44;;;;;;;7.30;4.30;;;23.20;99.90;;;-143.14;100.00;56521.75;4957157;28;20449;-70
2022/05/07 14:22:11;;;;;;;6.13;3.93;;;23.30;99.90;;;-143.14;100.00;56521.75;4955826;28;20589;-69
2022/05/07 14:24:39;;;;;;;3.70;3.20;;;23.40;99.90;;;-143.14;100.00;56521.75;4953754;28;20473;-70
2022/05/07 14:27:08;;;;;;;4.23;3.40;;;23.30;99.90;;;-143.14;100.00;56521.75;4954630;28;20449;-69
2022/05/07 14:29:35;;;;;;;5.00;3.57;;;23.40;99.90;;;-143.14;100.00;56521.75;4955865;28;20787;-69
2022/05/07 14:32:04;;;;;;;4.87;3.10;;;23.50;99.90;;;-143.14;100.00;56521.75;4955979;28;20465;-68
2022/05/07 14:34:32;;;;;;;5.33;3.80;;;23.70;99.90;;;-143.14;100.00;56521.75;4957036;28;20899;-69
2022/05/07 14:36:59;;;;;;;5.33;3.20;;;23.70;99.90;;;-143.14;100.00;56521.75;4956564;28;20483;-71